Time;durP1;ratioP1;P1;durP2;ratioP2;P2;SDS_P1;SDS_P2;PMS_P1;PMS_P2;Temp;Humidity;BMP_temperature;BMP_pressure;BME280_temperature;BME280_humidity;BME280_pressure;Samples;Min_cycle;Max_cycle;Signal;HPM_P1;HPM_P2
2023/03/21 00:00:20;;;;;;;72.47;27.57;;;;;;;;;;5047505;28;20088;-64
2023/03/21 00:02:46;;;;;;;73.93;27.83;;;;;;;;;;5046678;28;20395;-64
2023/03/21 00:05:12;;;;;;;67.50;27.80;;;;;;;;;;5047224;28;20037;-64
2023/03/21 00:07:39;;;;;;;112.90;34.33;;;;;;;;;;5046531;28;20041;-64
2023/03/21 00:10:05;;;;;;;77.27;29.63;;;;;;;;;;5047561;28;20053;-64
2023/03/21 00:12:36;;;;;;;86.90;31.40;;;;;;;;;;5046352;28;20566;-64
2023/03/21 00:15:12;;;;;;;102.13;36.10;;;;;;;;;;5046527;28;20511;-64
2023/03/21 00:17:38;;;;;;;106.70;35.83;;;;;;;;;;5046920;28;20616;-64
2023/03/21 00:20:05;;;;;;;135.37;38.80;;;;;;;;;;5045470;28;20803;-64
2023/03/21 00:22:31;;;;;;;128.07;38.40;;;;;;;;;;5047159;28;20120;-64
2023/03/21 00:24:57;;;;;;;96.13;35.67;;;;;;;;;;5048592;28;20125;-65
2023/03/21 00:27:23;;;;;;;138.90;41.33;;;;;;;;;;5051166;28;20057;-64
2023/03/21 00:29:49;;;;;;;169.33;44.33;;;;;;;;;;5050574;28;20124;-64
2023/03/21 00:32:16;;;;;;;115.00;37.37;;;;;;;;;;5050022;28;20048;-64
2023/03/21 00:34:42;;;;;;;206.30;47.47;;;;;;;;;;5050867;28;20119;-65
2023/03/21 00:37:10;;;;;;;136.70;41.13;;;;;;;;;;5051067;28;20049;-64
2023/03/21 00:39:36;;;;;;;158.87;42.77;;;;;;;;;;5051268;28;20102;-64
2023/03/21 00:42:03;;;;;;;140.37;41.03;;;;;;;;;;5049658;28;20124;-64
2023/03/21 00:44:31;;;;;;;164.00;43.33;;;;;;;;;;5049698;28;20087;-64
2023/03/21 00:47:01;;;;;;;161.47;44.40;;;;;;;;;;5049747;28;20080;-64
2023/03/21 00:49:32;;;;;;;149.07;41.90;;;;;;;;;;5050221;28;20045;-64
2023/03/21 00:51:58;;;;;;;132.43;44.40;;;;;;;;;;5049726;28;20563;-64
2023/03/21 00:54:24;;;;;;;169.07;44.33;;;;;;;;;;5049925;28;20068;-64
2023/03/21 00:56:50;;;;;;;162.50;44.87;;;;;;;;;;5048964;28;20053;-64
2023/03/21 00:59:16;;;;;;;154.20;43.57;;;;;;;;;;5050067;28;20403;-64
2023/03/21 01:01:45;;;;;;;156.37;46.10;;;;;;;;;;5048745;28;20114;-65
2023/03/21 01:04:13;;;;;;;167.23;45.33;;;;;;;;;;5050224;28;20056;-64
2023/03/21 01:06:39;;;;;;;167.97;46.43;;;;;;;;;;5050032;28;20049;-64
2023/03/21 01:09:06;;;;;;;152.70;42.50;;;;;;;;;;5049876;28;20052;-64
2023/03/21 01:11:33;;;;;;;131.53;40.87;;;;;;;;;;5048848;28;20487;-64
2023/03/21 01:13:59;;;;;;;146.93;40.80;;;;;;;;;;5049653;28;20045;-65
2023/03/21 01:16:25;;;;;;;137.07;39.10;;;;;;;;;;5047972;28;20029;-64
2023/03/21 01:18:51;;;;;;;115.00;37.17;;;;;;;;;;5049866;28;20037;-64
2023/03/21 01:21:18;;;;;;;154.50;41.43;;;;;;;;;;5049481;28;20102;-65
2023/03/21 01:23:45;;;;;;;131.67;39.77;;;;;;;;;;5049641;28;20422;-65
2023/03/21 01:26:11;;;;;;;106.27;36.43;;;;;;;;;;5049920;28;20118;-64
2023/03/21 01:28:39;;;;;;;127.50;38.20;;;;;;;;;;5049121;28;20049;-65
2023/03/21 01:31:05;;;;;;;127.53;36.67;;;;;;;;;;5049764;28;20052;-64
2023/03/21 01:33:32;;;;;;;104.93;34.77;;;;;;;;;;5049370;28;20436;-64
2023/03/21 01:35:58;;;;;;;111.70;35.10;;;;;;;;;;5048712;28;20554;-64
2023/03/21 01:38:24;;;;;;;94.13;32.93;;;;;;;;;;5049375;28;20045;-64
2023/03/21 01:40:51;;;;;;;98.97;33.90;;;;;;;;;;5049513;28;20049;-64
2023/03/21 01:43:25;;;;;;;91.90;32.30;;;;;;;;;;5048396;28;20060;-65
2023/03/21 01:46:03;;;;;;;96.63;31.63;;;;;;;;;;5049321;28;20052;-64
2023/03/21 01:48:29;;;;;;;101.17;34.03;;;;;;;;;;5049043;28;20056;-64
2023/03/21 01:50:56;;;;;;;95.60;32.37;;;;;;;;;;5049181;28;20049;-64
2023/03/21 01:53:28;;;;;;;86.07;31.07;;;;;;;;;;5047690;28;20101;-64
2023/03/21 01:55:55;;;;;;;90.13;31.13;;;;;;;;;;5049088;28;20114;-65
2023/03/21 01:58:21;;;;;;;96.20;32.83;;;;;;;;;;5048805;28;20049;-65
2023/03/21 02:00:50;;;;;;;113.93;35.03;;;;;;;;;;5049124;28;20091;-64
2023/03/21 02:03:16;;;;;;;132.00;36.47;;;;;;;;;;5047893;28;20036;-64
2023/03/21 02:05:50;;;;;;;143.73;37.83;;;;;;;;;;5048821;28;20040;-65
2023/03/21 02:08:17;;;;;;;116.63;34.90;;;;;;;;;;5049077;28;20045;-65
2023/03/21 02:10:45;;;;;;;125.03;35.93;;;;;;;;;;5049117;28;20080;-65
2023/03/21 02:13:11;;;;;;;107.07;34.50;;;;;;;;;;5048417;28;20052;-64
2023/03/21 02:15:38;;;;;;;105.73;33.63;;;;;;;;;;5048982;28;20503;-65
2023/03/21 02:18:07;;;;;;;152.70;37.07;;;;;;;;;;5049008;28;20053;-65
2023/03/21 02:20:53;;;;;;;146.57;35.77;;;;;;;;;;5049147;28;20060;-65
2023/03/21 02:23:46;;;;;;;106.27;32.77;;;;;;;;;;5047574;28;20132;-66
2023/03/21 02:26:28;;;;;;;134.40;33.50;;;;;;;;;;5048871;28;20053;-65
2023/03/21 02:28:54;;;;;;;113.07;31.80;;;;;;;;;;5048170;28;20083;-65
2023/03/21 02:31:53;;;;;;;132.03;33.47;;;;;;;;;;5048038;28;20045;-65
2023/03/21 02:34:19;;;;;;;141.83;33.83;;;;;;;;;;5019801;28;20053;-65
2023/03/21 02:37:03;;;;;;;113.60;30.00;;;;;;;;;;5048292;28;20055;-65
2023/03/21 02:39:48;;;;;;;112.57;31.67;;;;;;;;;;5048391;28;20136;-65
2023/03/21 02:42:14;;;;;;;112.73;32.03;;;;;;;;;;5047445;28;20588;-65
2023/03/21 02:45:03;;;;;;;120.70;33.23;;;;;;;;;;5048650;28;20084;-65
2023/03/21 02:47:33;;;;;;;106.63;30.63;;;;;;;;;;5042124;28;20057;-65
2023/03/21 02:50:38;;;;;;;120.43;31.17;;;;;;;;;;5048427;28;20056;-65
2023/03/21 02:53:06;;;;;;;112.70;31.67;;;;;;;;;;5004781;28;20133;-65
2023/03/21 02:55:33;;;;;;;113.03;31.67;;;;;;;;;;5005912;28;20489;-65
2023/03/21 02:58:00;;;;;;;106.83;31.57;;;;;;;;;;5015752;28;20060;-65
2023/03/21 03:00:28;;;;;;;91.13;30.83;;;;;;;;;;5063503;28;20045;-65
2023/03/21 03:02:54;;;;;;;96.50;31.30;;;;;;;;;;5047938;28;20044;-65
2023/03/21 03:05:25;;;;;;;76.37;29.20;;;;;;;;;;5049061;28;20503;-65
2023/03/21 03:08:06;;;;;;;89.20;30.57;;;;;;;;;;5049418;28;20395;-65
2023/03/21 03:10:39;;;;;;;82.53;29.07;;;;;;;;;;5047865;28;20913;-65
2023/03/21 03:13:28;;;;;;;125.95;35.25;;;;;;;;;;5048440;28;20071;-65
2023/03/21 03:16:00;;;;;;;86.87;30.27;;;;;;;;;;5030419;28;20064;-65
2023/03/21 03:18:26;;;;;;;92.78;30.55;;;;;;;;;;5049527;28;20049;-65
2023/03/21 03:21:00;;;;;;;104.67;31.20;;;;;;;;;;5049297;28;20049;-64
2023/03/21 03:23:35;;;;;;;85.10;30.90;;;;;;;;;;5049432;28;20037;-65
2023/03/21 03:26:07;;;;;;;109.70;32.47;;;;;;;;;;5049842;28;20083;-65
2023/03/21 03:28:38;;;;;;;96.17;32.63;;;;;;;;;;5049789;28;20071;-65
2023/03/21 03:31:07;;;;;;;111.57;34.03;;;;;;;;;;5048250;28;20049;-65
2023/03/21 03:33:35;;;;;;;102.30;32.10;;;;;;;;;;5049438;28;20052;-65
2023/03/21 03:36:01;;;;;;;120.00;36.23;;;;;;;;;;5049564;28;20052;-65
2023/03/21 03:38:28;;;;;;;113.27;35.43;;;;;;;;;;5047813;28;20050;-63
2023/03/21 03:40:57;;;;;;;128.27;36.63;;;;;;;;;;5048885;28;20132;-63
2023/03/21 03:43:27;;;;;;;138.87;36.67;;;;;;;;;;5048300;28;20056;-63
2023/03/21 03:45:56;;;;;;;93.70;31.90;;;;;;;;;;5049551;28;20056;-63
2023/03/21 03:48:32;;;;;;;96.17;31.80;;;;;;;;;;5049701;28;20451;-63
2023/03/21 03:51:02;;;;;;;133.90;36.73;;;;;;;;;;5037752;28;20056;-63
2023/03/21 03:53:32;;;;;;;109.53;34.83;;;;;;;;;;5046815;28;20674;-66
2023/03/21 03:56:00;;;;;;;171.80;41.07;;;;;;;;;;5047844;28;20040;-63
2023/03/21 03:58:26;;;;;;;114.10;34.20;;;;;;;;;;5049199;28;20053;-63
2023/03/21 04:00:55;;;;;;;120.43;35.80;;;;;;;;;;5051639;28;20095;-63
2023/03/21 04:03:22;;;;;;;82.50;31.13;;;;;;;;;;5052674;28;20498;-63
2023/03/21 04:05:49;;;;;;;98.60;33.43;;;;;;;;;;5052059;28;20056;-63
2023/03/21 04:08:16;;;;;;;107.10;34.77;;;;;;;;;;5052975;28;20059;-63
2023/03/21 04:10:42;;;;;;;82.43;30.77;;;;;;;;;;5052143;28;20049;-62
2023/03/21 04:13:09;;;;;;;77.03;30.37;;;;;;;;;;5052567;28;20049;-63
2023/03/21 04:15:35;;;;;;;79.50;31.10;;;;;;;;;;5048683;28;20045;-62
2023/03/21 04:18:01;;;;;;;87.93;31.90;;;;;;;;;;5031880;28;20060;-63
2023/03/21 04:20:27;;;;;;;69.80;29.67;;;;;;;;;;5032669;28;20064;-63
2023/03/21 04:22:55;;;;;;;75.87;30.03;;;;;;;;;;5050173;28;20053;-63
2023/03/21 04:25:21;;;;;;;90.33;33.07;;;;;;;;;;5052857;28;20388;-63
2023/03/21 04:27:47;;;;;;;88.57;32.63;;;;;;;;;;5052918;28;20057;-63
2023/03/21 04:30:14;;;;;;;71.03;29.93;;;;;;;;;;5052673;28;20052;-62
2023/03/21 04:32:40;;;;;;;87.87;32.73;;;;;;;;;;5052259;28;20413;-63
2023/03/21 04:35:07;;;;;;;96.07;35.27;;;;;;;;;;5052872;28;20053;-63
2023/03/21 04:37:33;;;;;;;81.00;33.63;;;;;;;;;;5052257;28;20519;-63
2023/03/21 04:40:01;;;;;;;78.97;33.30;;;;;;;;;;5051707;28;20045;-63
2023/03/21 04:42:27;;;;;;;95.17;36.20;;;;;;;;;;5050579;28;20048;-63
2023/03/21 04:44:53;;;;;;;133.57;40.33;;;;;;;;;;5052504;28;20041;-63
2023/03/21 04:47:20;;;;;;;117.90;39.70;;;;;;;;;;5052172;28;20049;-63
2023/03/21 04:49:50;;;;;;;96.77;37.50;;;;;;;;;;5051201;28;20075;-63
2023/03/21 04:52:16;;;;;;;111.53;39.83;;;;;;;;;;5051313;28;20056;-63
2023/03/21 04:54:42;;;;;;;95.67;39.17;;;;;;;;;;5051717;28;20044;-63
2023/03/21 04:57:08;;;;;;;100.07;38.73;;;;;;;;;;5052378;28;20049;-63
2023/03/21 04:59:34;;;;;;;138.13;44.00;;;;;;;;;;5052056;28;20421;-63
2023/03/21 05:02:01;;;;;;;115.27;41.40;;;;;;;;;;5050146;28;20049;-63
2023/03/21 05:04:27;;;;;;;109.47;42.30;;;;;;;;;;5051509;28;20102;-63
2023/03/21 05:06:53;;;;;;;142.73;45.47;;;;;;;;;;5051897;28;20045;-63
2023/03/21 05:09:21;;;;;;;137.63;47.70;;;;;;;;;;5052168;28;20388;-63
2023/03/21 05:11:47;;;;;;;130.03;44.30;;;;;;;;;;5051419;28;20048;-63
2023/03/21 05:14:15;;;;;;;122.43;44.07;;;;;;;;;;5050673;28;20048;-63
2023/03/21 05:16:52;;;;;;;141.00;45.33;;;;;;;;;;5049028;28;20087;-63
2023/03/21 05:19:19;;;;;;;122.43;46.07;;;;;;;;;;5031955;28;20569;-63
2023/03/21 05:21:45;;;;;;;150.07;48.37;;;;;;;;;;5045072;28;20053;-63
2023/03/21 05:24:16;;;;;;;146.43;49.53;;;;;;;;;;5051610;28;20045;-63
2023/03/21 05:26:43;;;;;;;138.03;47.77;;;;;;;;;;5050469;28;20057;-63
2023/03/21 05:29:10;;;;;;;141.60;49.30;;;;;;;;;;5051646;28;20674;-63
2023/03/21 05:31:36;;;;;;;151.43;49.90;;;;;;;;;;5051582;28;20045;-63
2023/03/21 05:34:02;;;;;;;135.37;48.27;;;;;;;;;;5050832;28;20048;-63
2023/03/21 05:36:28;;;;;;;149.63;49.97;;;;;;;;;;5050771;28;20128;-63
2023/03/21 05:38:54;;;;;;;132.00;48.47;;;;;;;;;;5050932;28;20140;-63
2023/03/21 05:41:21;;;;;;;141.30;50.90;;;;;;;;;;5051527;28;20055;-63
2023/03/21 05:43:47;;;;;;;137.90;47.00;;;;;;;;;;5051120;28;20041;-63
2023/03/21 05:46:13;;;;;;;163.73;50.33;;;;;;;;;;5050903;28;20048;-63
2023/03/21 05:48:39;;;;;;;134.10;49.23;;;;;;;;;;5050686;28;20408;-63
2023/03/21 05:51:05;;;;;;;146.87;47.40;;;;;;;;;;5049597;28;20049;-65
2023/03/21 05:53:31;;;;;;;156.27;52.27;;;;;;;;;;5051200;28;20044;-64
2023/03/21 05:55:57;;;;;;;160.80;51.63;;;;;;;;;;5049968;28;20049;-65
2023/03/21 05:58:24;;;;;;;143.77;50.10;;;;;;;;;;5050860;28;20610;-64
2023/03/21 06:00:50;;;;;;;158.37;50.77;;;;;;;;;;5050082;28;20079;-65
2023/03/21 06:03:16;;;;;;;174.20;54.07;;;;;;;;;;5050402;28;20045;-65
2023/03/21 06:05:42;;;;;;;179.90;53.03;;;;;;;;;;5050996;28;20103;-65
2023/03/21 06:08:10;;;;;;;183.50;53.30;;;;;;;;;;5050505;28;20481;-65
2023/03/21 06:10:36;;;;;;;200.37;55.43;;;;;;;;;;5050711;28;20044;-65
2023/03/21 06:13:02;;;;;;;152.17;45.93;;;;;;;;;;5049712;28;20041;-65
2023/03/21 06:15:28;;;;;;;118.53;40.43;;;;;;;;;;5049700;28;20044;-65
2023/03/21 06:17:54;;;;;;;133.57;43.43;;;;;;;;;;5050591;28;20052;-65
2023/03/21 06:20:21;;;;;;;99.00;38.67;;;;;;;;;;5050227;28;20142;-65
2023/03/21 06:22:47;;;;;;;113.37;39.67;;;;;;;;;;5049196;28;20041;-65
2023/03/21 06:25:13;;;;;;;98.53;37.23;;;;;;;;;;5050369;28;20786;-65
2023/03/21 06:27:39;;;;;;;106.37;35.63;;;;;;;;;;5047717;28;20060;-65
2023/03/21 06:30:05;;;;;;;83.40;32.57;;;;;;;;;;5050367;28;20044;-65
2023/03/21 06:32:31;;;;;;;79.47;31.10;;;;;;;;;;5042311;28;20048;-65
2023/03/21 06:34:57;;;;;;;86.37;31.60;;;;;;;;;;5038289;28;20040;-65
2023/03/21 06:37:25;;;;;;;85.50;31.10;;;;;;;;;;5039840;28;20487;-65
2023/03/21 06:39:51;;;;;;;84.00;30.47;;;;;;;;;;5044661;28;20107;-65
2023/03/21 06:42:20;;;;;;;56.67;26.23;;;;;;;;;;5038091;28;20065;-65
2023/03/21 06:44:46;;;;;;;68.30;28.23;;;;;;;;;;5042019;28;20055;-65
2023/03/21 06:47:12;;;;;;;81.03;31.00;;;;;;;;;;5038890;28;20049;-65
2023/03/21 06:49:39;;;;;;;70.63;29.43;;;;;;;;;;5036528;28;20779;-65
2023/03/21 06:52:05;;;;;;;67.10;28.90;;;;;;;;;;5041775;28;20040;-66
2023/03/21 06:54:31;;;;;;;81.53;30.40;;;;;;;;;;5038938;28;20037;-65
2023/03/21 06:56:57;;;;;;;81.33;32.20;;;;;;;;;;5037322;28;20041;-65
2023/03/21 06:59:23;;;;;;;84.40;30.57;;;;;;;;;;5040474;28;20041;-65
2023/03/21 07:01:49;;;;;;;76.50;30.63;;;;;;;;;;5037106;28;20036;-65
2023/03/21 07:04:15;;;;;;;88.43;33.77;;;;;;;;;;5038096;28;20600;-65
2023/03/21 07:06:41;;;;;;;92.03;33.70;;;;;;;;;;5046803;28;20068;-65
2023/03/21 07:09:08;;;;;;;79.90;31.43;;;;;;;;;;5054974;28;20098;-65
2023/03/21 07:11:35;;;;;;;74.70;32.03;;;;;;;;;;5040199;28;20041;-65
2023/03/21 07:14:01;;;;;;;106.03;37.47;;;;;;;;;;5039720;28;20061;-65
2023/03/21 07:16:27;;;;;;;72.60;32.70;;;;;;;;;;5046085;28;20056;-63
2023/03/21 07:18:53;;;;;;;70.30;32.13;;;;;;;;;;5036284;28;20044;-63
2023/03/21 07:21:20;;;;;;;85.37;35.20;;;;;;;;;;5038297;28;20049;-63
2023/03/21 07:23:46;;;;;;;84.30;35.47;;;;;;;;;;5041086;28;20049;-63
2023/03/21 07:26:12;;;;;;;135.07;43.73;;;;;;;;;;5045507;28;20056;-63
2023/03/21 07:28:38;;;;;;;76.07;35.23;;;;;;;;;;5036043;28;20448;-63
2023/03/21 07:31:05;;;;;;;105.83;40.73;;;;;;;;;;5040394;28;20052;-65
2023/03/21 07:33:32;;;;;;;118.43;40.67;;;;;;;;;;5049092;28;20461;-65
2023/03/21 07:35:59;;;;;;;93.43;37.90;;;;;;;;;;5049668;28;20433;-66
2023/03/21 07:38:25;;;;;;;84.07;36.97;;;;;;;;;;5053089;28;20128;-65
2023/03/21 07:40:52;;;;;;;86.93;34.33;;;;;;;;;;5050248;28;20040;-65
2023/03/21 07:43:18;;;;;;;82.03;36.43;;;;;;;;;;5047917;28;20067;-66
2023/03/21 07:45:45;;;;;;;76.13;33.90;;;;;;;;;;5041341;28;20052;-66
2023/03/21 07:48:11;;;;;;;79.30;33.20;;;;;;;;;;5045604;28;20625;-66
2023/03/21 07:50:38;;;;;;;98.63;36.60;;;;;;;;;;5043491;28;20049;-65
2023/03/21 07:53:04;;;;;;;82.77;34.80;;;;;;;;;;5051079;28;20075;-65
2023/03/21 07:55:33;;;;;;;85.53;36.10;;;;;;;;;;5051770;28;20049;-66
2023/03/21 07:58:00;;;;;;;94.27;34.70;;;;;;;;;;5045305;28;20051;-66
2023/03/21 08:00:26;;;;;;;88.33;36.03;;;;;;;;;;5046910;28;20073;-66
2023/03/21 08:02:53;;;;;;;114.27;39.60;;;;;;;;;;5042172;28;20101;-65
2023/03/21 08:05:23;;;;;;;67.20;31.60;;;;;;;;;;5044853;28;20131;-65
2023/03/21 08:07:50;;;;;;;77.90;33.90;;;;;;;;;;5044653;28;20398;-65
2023/03/21 08:10:16;;;;;;;70.40;32.83;;;;;;;;;;5043500;28;20098;-65
2023/03/21 08:12:43;;;;;;;98.53;36.20;;;;;;;;;;5044463;28;20081;-65
2023/03/21 08:15:09;;;;;;;75.87;33.23;;;;;;;;;;5041417;28;20037;-65
2023/03/21 08:17:36;;;;;;;75.43;32.57;;;;;;;;;;5043959;28;20156;-65
2023/03/21 08:20:06;;;;;;;80.23;33.27;;;;;;;;;;5051102;28;20128;-65
2023/03/21 08:22:32;;;;;;;96.80;37.57;;;;;;;;;;5050840;28;20518;-65
2023/03/21 08:24:58;;;;;;;95.00;37.20;;;;;;;;;;5050991;28;20037;-65
2023/03/21 08:27:24;;;;;;;69.97;31.80;;;;;;;;;;5049329;28;20072;-65
2023/03/21 08:29:50;;;;;;;91.67;33.70;;;;;;;;;;5050512;28;20137;-65
2023/03/21 08:32:18;;;;;;;68.97;30.83;;;;;;;;;;5048805;28;20053;-65
2023/03/21 08:34:44;;;;;;;111.43;37.67;;;;;;;;;;5049328;28;20186;-65
2023/03/21 08:37:10;;;;;;;64.27;30.53;;;;;;;;;;5049734;28;20384;-66
2023/03/21 08:39:37;;;;;;;85.87;33.73;;;;;;;;;;5049220;28;20076;-66
2023/03/21 08:42:04;;;;;;;60.90;28.83;;;;;;;;;;5050143;28;20100;-65
2023/03/21 08:44:30;;;;;;;78.97;33.10;;;;;;;;;;5044667;28;20507;-66
2023/03/21 08:46:56;;;;;;;94.13;35.20;;;;;;;;;;5047888;28;20136;-66
2023/03/21 08:49:22;;;;;;;67.90;30.47;;;;;;;;;;5049695;28;20123;-66
2023/03/21 08:51:48;;;;;;;72.27;30.50;;;;;;;;;;5050162;28;20110;-66
2023/03/21 08:54:21;;;;;;;75.53;32.33;;;;;;;;;;5049248;28;20044;-66
2023/03/21 08:56:47;;;;;;;74.38;31.75;;;;;;;;;;5049855;28;20072;-65
2023/03/21 08:59:13;;;;;;;69.33;31.40;;;;;;;;;;5048131;28;20076;-65
2023/03/21 09:01:40;;;;;;;74.40;29.67;;;;;;;;;;5039731;28;20133;-66
2023/03/21 09:04:09;;;;;;;69.53;29.67;;;;;;;;;;5045896;28;20071;-66
2023/03/21 09:06:35;;;;;;;67.60;29.67;;;;;;;;;;5049264;28;20431;-66
2023/03/21 09:09:02;;;;;;;70.87;29.93;;;;;;;;;;5049645;28;20053;-66
2023/03/21 09:11:28;;;;;;;60.87;26.37;;;;;;;;;;5044235;28;20049;-66
2023/03/21 09:13:54;;;;;;;62.80;28.20;;;;;;;;;;5042715;28;20697;-65
2023/03/21 09:16:20;;;;;;;53.83;26.67;;;;;;;;;;5044795;28;20045;-66
2023/03/21 09:18:49;;;;;;;61.57;26.07;;;;;;;;;;5042851;28;20087;-65
2023/03/21 09:21:17;;;;;;;56.17;27.40;;;;;;;;;;5040097;28;20077;-66
2023/03/21 09:23:47;;;;;;;61.40;25.57;;;;;;;;;;5042116;28;20156;-66
2023/03/21 09:26:15;;;;;;;79.00;30.03;;;;;;;;;;5003061;28;1075053;-67
2023/03/21 09:28:41;;;;;;;86.73;30.43;;;;;;;;;;5041982;28;20053;-65
2023/03/21 09:31:10;;;;;;;79.60;27.83;;;;;;;;;;5044341;28;20048;-66
2023/03/21 09:33:37;;;;;;;62.73;25.23;;;;;;;;;;5046849;28;20045;-65
2023/03/21 09:36:11;;;;;;;4.07;1.13;;;;;;;;;;5051222;28;20041;-66
2023/03/21 09:38:39;;;;;;;1.33;1.23;;;;;;;;;;5050806;28;20051;-64
2023/03/21 09:41:20;;;;;;;2.70;1.73;;;;;;;;;;5049325;28;20975;-66
2023/03/21 09:43:52;;;;;;;5.37;3.67;;;;;;;;;;5045434;28;20423;-66
2023/03/21 09:46:27;;;;;;;1.17;0.83;;;;;;;;;;5032753;28;20057;-65
2023/03/21 09:48:58;;;;;;;1.17;1.00;;;;;;;;;;5047150;28;20048;-66
2023/03/21 09:51:46;;;;;;;0.83;0.83;;;;;;;;;;5041011;28;20103;-66
2023/03/21 09:54:23;;;;;;;2.80;2.03;;;;;;;;;;5044012;28;20045;-65
2023/03/21 09:56:52;;;;;;;0.83;0.77;;;;;;;;;;5046585;28;20041;-65
2023/03/21 09:59:21;;;;;;;0.67;0.67;;;;;;;;;;5050123;28;20094;-65
2023/03/21 10:01:48;;;;;;;2.20;1.33;;;;;;;;;;5041826;28;20049;-65
2023/03/21 10:04:19;;;;;;;1.20;1.10;;;;;;;;;;5042067;28;20419;-66
2023/03/21 10:06:47;;;;;;;4.03;0.77;;;;;;;;;;5040073;28;20061;-66
2023/03/21 10:09:23;;;;;;;3.40;1.50;;;;;;;;;;5038409;28;20131;-66
2023/03/21 10:11:52;;;;;;;2.43;0.70;;;;;;;;;;5037002;28;20050;-66
2023/03/21 10:14:26;;;;;;;0.23;0.23;;;;;;;;;;5040493;28;20053;-65
2023/03/21 10:16:55;;;;;;;0.30;0.30;;;;;;;;;;5040064;28;20033;-66
2023/03/21 10:19:22;;;;;;;1.70;1.60;;;;;;;;;;5037717;28;20041;-65
2023/03/21 10:21:49;;;;;;;0.67;0.67;;;;;;;;;;5043166;28;20555;-63
2023/03/21 10:24:20;;;;;;;1.33;0.83;;;;;;;;;;5040883;28;20106;-63
2023/03/21 10:26:47;;;;;;;9.37;1.67;;;;;;;;;;5039966;28;20503;-63
2023/03/21 10:29:15;;;;;;;0.97;0.93;;;;;;;;;;5042636;28;20049;-63
2023/03/21 10:31:41;;;;;;;1.80;0.93;;;;;;;;;;5041953;28;20731;-65
2023/03/21 10:34:34;;;;;;;0.37;0.37;;;;;;;;;;5042977;28;20045;-65
2023/03/21 10:37:01;;;;;;;1.80;1.27;;;;;;;;;;5041344;28;20048;-63
2023/03/21 10:39:30;;;;;;;0.20;0.20;;;;;;;;;;5044491;28;20558;-63
2023/03/21 10:41:56;;;;;;;0.67;0.67;;;;;;;;;;5036813;28;20045;-65
2023/03/21 10:44:28;;;;;;;0.20;0.20;;;;;;;;;;5042507;28;20060;-65
2023/03/21 10:46:56;;;;;;;1.10;1.07;;;;;;;;;;5042014;28;20049;-65
2023/03/21 10:49:22;;;;;;;1.37;1.27;;;;;;;;;;5039729;28;20086;-65
2023/03/21 10:51:52;;;;;;;1.70;0.73;;;;;;;;;;5039092;28;20052;-65
2023/03/21 10:54:20;;;;;;;1.37;0.57;;;;;;;;;;5039913;28;20041;-63
2023/03/21 10:56:56;;;;;;;4.70;1.40;;;;;;;;;;5043301;28;20723;-63
2023/03/21 10:59:22;;;;;;;1.33;1.17;;;;;;;;;;5048275;28;20045;-63
2023/03/21 11:01:51;;;;;;;38.20;19.47;;;;;;;;;;5043069;28;20055;-63
2023/03/21 11:04:27;;;;;;;41.60;20.00;;;;;;;;;;5039732;28;20045;-63
2023/03/21 11:07:08;;;;;;;40.70;18.73;;;;;;;;;;5041154;28;20047;-63
2023/03/21 11:09:45;;;;;;;39.43;19.70;;;;;;;;;;5041390;28;20045;-63
2023/03/21 11:12:27;;;;;;;35.33;17.07;;;;;;;;;;5043659;28;20077;-64
2023/03/21 11:14:53;;;;;;;28.90;16.57;;;;;;;;;;5047545;28;20041;-63
2023/03/21 11:17:20;;;;;;;33.40;16.97;;;;;;;;;;5041036;28;20045;-64
2023/03/21 11:19:51;;;;;;;22.53;14.57;;;;;;;;;;5044024;28;20135;-64
2023/03/21 11:22:20;;;;;;;29.20;13.93;;;;;;;;;;5047226;28;20068;-64
2023/03/21 11:24:50;;;;;;;25.97;13.53;;;;;;;;;;5040468;28;20053;-63
2023/03/21 11:27:16;;;;;;;21.83;13.87;;;;;;;;;;5040392;28;20390;-63
2023/03/21 11:29:47;;;;;;;22.43;12.70;;;;;;;;;;5043377;28;20451;-63
2023/03/21 11:32:20;;;;;;;25.13;12.73;;;;;;;;;;5048865;28;20049;-63
2023/03/21 11:34:47;;;;;;;28.50;14.43;;;;;;;;;;5039985;28;20052;-64
2023/03/21 11:37:33;;;;;;;23.03;12.53;;;;;;;;;;5041528;28;20037;-64
2023/03/21 11:40:08;;;;;;;23.23;12.20;;;;;;;;;;5037463;28;20125;-63
2023/03/21 11:42:40;;;;;;;19.13;10.90;;;;;;;;;;5041750;28;20420;-64
2023/03/21 11:45:14;;;;;;;19.97;11.03;;;;;;;;;;5046217;28;20407;-63
2023/03/21 11:47:40;;;;;;;22.10;12.03;;;;;;;;;;5038575;28;20090;-63
2023/03/21 11:50:16;;;;;;;14.90;10.10;;;;;;;;;;5031567;28;20380;-63
2023/03/21 11:52:48;;;;;;;19.73;11.80;;;;;;;;;;5049485;28;20457;-63
2023/03/21 11:55:22;;;;;;;22.73;11.33;;;;;;;;;;5048452;28;20610;-63
2023/03/21 11:57:57;;;;;;;17.70;9.37;;;;;;;;;;5048813;28;20048;-63
2023/03/21 12:00:25;;;;;;;24.87;11.03;;;;;;;;;;5045671;28;20121;-63
2023/03/21 12:02:57;;;;;;;15.10;9.80;;;;;;;;;;5052491;28;20436;-63
2023/03/21 12:05:27;;;;;;;20.07;10.37;;;;;;;;;;5029635;28;20403;-63
2023/03/21 12:08:02;;;;;;;18.50;9.93;;;;;;;;;;5042087;28;20052;-63
2023/03/21 12:10:32;;;;;;;20.90;9.57;;;;;;;;;;5037857;28;20068;-62
2023/03/21 12:13:17;;;;;;;19.77;9.70;;;;;;;;;;5041672;28;20052;-62
2023/03/21 12:15:50;;;;;;;15.67;8.80;;;;;;;;;;5038642;28;20053;-63
2023/03/21 12:18:25;;;;;;;20.25;9.88;;;;;;;;;;5036527;28;20495;-63
2023/03/21 12:20:54;;;;;;;16.33;8.53;;;;;;;;;;5041398;28;20087;-63
2023/03/21 12:23:23;;;;;;;15.10;10.23;;;;;;;;;;5043716;28;20048;-63
2023/03/21 12:25:55;;;;;;;21.30;9.73;;;;;;;;;;5044600;28;20052;-63
2023/03/21 12:28:21;;;;;;;21.23;9.93;;;;;;;;;;5041087;28;20053;-63
2023/03/21 12:31:00;;;;;;;18.10;9.00;;;;;;;;;;5034250;28;20041;-63
2023/03/21 12:33:49;;;;;;;19.63;9.13;;;;;;;;;;5046014;28;20040;-63
2023/03/21 12:36:26;;;;;;;17.97;9.20;;;;;;;;;;5060965;28;20045;-62
2023/03/21 12:38:55;;;;;;;19.67;9.50;;;;;;;;;;5042454;28;20102;-63
2023/03/21 12:41:26;;;;;;;17.87;9.23;;;;;;;;;;5049949;28;20057;-63
2023/03/21 12:43:55;;;;;;;14.70;8.57;;;;;;;;;;5044111;28;20045;-63
2023/03/21 12:46:32;;;;;;;17.43;9.60;;;;;;;;;;5047035;28;20044;-62
2023/03/21 12:49:01;;;;;;;16.73;9.50;;;;;;;;;;5047585;28;20045;-62
2023/03/21 12:51:33;;;;;;;19.40;10.03;;;;;;;;;;5042113;28;20056;-62
2023/03/21 12:53:59;;;;;;;14.40;8.97;;;;;;;;;;5048161;28;20048;-63
2023/03/21 12:56:28;;;;;;;18.87;8.83;;;;;;;;;;5050924;28;20137;-63
2023/03/21 12:58:58;;;;;;;15.77;9.00;;;;;;;;;;5041377;28;20045;-62
2023/03/21 13:01:25;;;;;;;14.63;8.57;;;;;;;;;;5042727;28;20519;-62
2023/03/21 13:04:06;;;;;;;16.10;9.10;;;;;;;;;;5039873;28;20037;-63
2023/03/21 13:06:32;;;;;;;13.33;8.07;;;;;;;;;;5037080;28;20140;-62
2023/03/21 13:09:02;;;;;;;19.47;9.37;;;;;;;;;;5032143;28;20060;-62
2023/03/21 13:11:30;;;;;;;16.00;9.53;;;;;;;;;;5037433;28;20048;-63
2023/03/21 13:14:02;;;;;;;18.23;9.37;;;;;;;;;;5032402;28;20177;-62
2023/03/21 13:16:40;;;;;;;18.98;8.25;;;;;;;;;;5046743;28;20507;-62
2023/03/21 13:19:15;;;;;;;15.43;8.83;;;;;;;;;;5048506;28;20044;-62
2023/03/21 13:22:07;;;;;;;15.97;8.50;;;;;;;;;;5048265;28;20398;-62
2023/03/21 13:24:47;;;;;;;14.50;8.17;;;;;;;;;;5046263;28;20045;-62
2023/03/21 13:27:16;;;;;;;18.23;9.67;;;;;;;;;;5041635;28;20061;-62
2023/03/21 13:29:45;;;;;;;17.07;8.47;;;;;;;;;;5034531;28;20052;-62
2023/03/21 13:32:24;;;;;;;15.67;9.33;;;;;;;;;;5039546;28;20124;-62
2023/03/21 13:34:58;;;;;;;16.20;8.73;;;;;;;;;;5037977;28;20049;-62
2023/03/21 13:37:26;;;;;;;15.13;9.10;;;;;;;;;;5031297;28;20061;-62
2023/03/21 13:39:52;;;;;;;16.47;8.43;;;;;;;;;;5037446;28;20411;-62
2023/03/21 13:42:23;;;;;;;18.43;9.27;;;;;;;;;;5050874;28;20407;-62
2023/03/21 13:44:52;;;;;;;18.37;9.77;;;;;;;;;;5050645;28;20124;-62
2023/03/21 13:47:24;;;;;;;16.10;8.93;;;;;;;;;;5051244;28;20037;-62
2023/03/21 13:50:09;;;;;;;15.73;8.90;;;;;;;;;;5044372;28;20061;-62
2023/03/21 13:52:35;;;;;;;17.50;9.03;;;;;;;;;;5038404;28;20077;-62
2023/03/21 13:55:03;;;;;;;18.97;8.43;;;;;;;;;;5042345;28;20049;-62
2023/03/21 13:57:29;;;;;;;20.97;9.30;;;;;;;;;;5040699;28;20106;-62
2023/03/21 14:00:14;;;;;;;15.10;7.77;;;;;;;;;;5037764;28;20061;-62
2023/03/21 14:02:52;;;;;;;16.70;8.83;;;;;;;;;;5039993;28;20037;-62
2023/03/21 14:05:20;;;;;;;19.87;8.10;;;;;;;;;;5037079;28;20407;-62
2023/03/21 14:07:48;;;;;;;18.83;7.77;;;;;;;;;;5038740;28;20087;-63
2023/03/21 14:10:18;;;;;;;12.13;7.40;;;;;;;;;;5041117;28;20866;-63
2023/03/21 14:12:45;;;;;;;13.07;7.43;;;;;;;;;;5037951;28;20041;-63
2023/03/21 14:15:21;;;;;;;27.70;7.27;;;;;;;;;;5041939;28;20033;-63
2023/03/21 14:18:06;;;;;;;13.60;7.13;;;;;;;;;;5038600;28;20059;-62
2023/03/21 14:20:38;;;;;;;13.30;6.00;;;;;;;;;;5038124;28;20076;-62
2023/03/21 14:23:05;;;;;;;15.30;6.80;;;;;;;;;;5038890;28;20051;-62
2023/03/21 14:25:33;;;;;;;14.20;6.43;;;;;;;;;;5038367;28;20045;-62
2023/03/21 14:28:00;;;;;;;14.57;6.43;;;;;;;;;;5038125;28;20057;-62